sensor_id;sensor_type;location;lat;lon;timestamp;pressure;altitude;pressure_sealevel;temperature;humidity
54882;BME280;40775;51.448;4.742;2023-02-18T00:01:36;102286.34;;;12.00;100.00
54882;BME280;40775;51.448;4.742;2023-02-18T00:04:03;102291.53;;;11.99;100.00
54882;BME280;40775;51.448;4.742;2023-02-18T00:06:33;102297.75;;;12.01;100.00
54882;BME280;40775;51.448;4.742;2023-02-18T00:09:03;102292.50;;;12.01;100.00
54882;BME280;40775;51.448;4.742;2023-02-18T00:11:34;102281.03;;;11.99;100.00
54882;BME280;40775;51.448;4.742;2023-02-18T00:14:04;102280.13;;;11.98;100.00
54882;BME280;40775;51.448;4.742;2023-02-18T00:16:31;102275.75;;;11.99;100.00
54882;BME280;40775;51.448;4.742;2023-02-18T00:19:02;102263.44;;;11.98;100.00
54882;BME280;40775;51.448;4.742;2023-02-18T00:21:31;102269.53;;;11.97;100.00
54882;BME280;40775;51.448;4.742;2023-02-18T00:23:58;102271.38;;;11.99;100.00
54882;BME280;40775;51.448;4.742;2023-02-18T00:26:26;102276.53;;;11.96;100.00
54882;BME280;40775;51.448;4.742;2023-02-18T00:28:53;102276.50;;;11.95;100.00
54882;BME280;40775;51.448;4.742;2023-02-18T00:31:35;102259.78;;;11.94;100.00
54882;BME280;40775;51.448;4.742;2023-02-18T00:34:04;102259.97;;;11.99;100.00
54882;BME280;40775;51.448;4.742;2023-02-18T00:36:31;102259.06;;;11.98;100.00
54882;BME280;40775;51.448;4.742;2023-02-18T00:39:02;102256.38;;;11.97;100.00
54882;BME280;40775;51.448;4.742;2023-02-18T00:41:30;102255.38;;;11.93;100.00
54882;BME280;40775;51.448;4.742;2023-02-18T00:43:58;102244.91;;;11.95;100.00
54882;BME280;40775;51.448;4.742;2023-02-18T00:46:26;102235.16;;;11.92;100.00
54882;BME280;40775;51.448;4.742;2023-02-18T00:48:54;102243.91;;;11.91;100.00
54882;BME280;40775;51.448;4.742;2023-02-18T00:51:22;102241.22;;;11.90;100.00
54882;BME280;40775;51.448;4.742;2023-02-18T00:53:51;102242.94;;;11.89;100.00
54882;BME280;40775;51.448;4.742;2023-02-18T00:56:19;102236.72;;;11.87;100.00
54882;BME280;40775;51.448;4.742;2023-02-18T00:58:46;102241.16;;;11.88;100.00
54882;BME280;40775;51.448;4.742;2023-02-18T01:01:13;102236.72;;;11.87;100.00
54882;BME280;40775;51.448;4.742;2023-02-18T01:03:41;102230.56;;;11.87;100.00
54882;BME280;40775;51.448;4.742;2023-02-18T01:06:10;102235.84;;;11.87;100.00
54882;BME280;40775;51.448;4.742;2023-02-18T01:08:39;102238.34;;;11.84;100.00
54882;BME280;40775;51.448;4.742;2023-02-18T01:11:08;102228.72;;;11.84;100.00
54882;BME280;40775;51.448;4.742;2023-02-18T01:13:36;102227.03;;;11.86;100.00
54882;BME280;40775;51.448;4.742;2023-02-18T01:16:03;102231.47;;;11.87;100.00
54882;BME280;40775;51.448;4.742;2023-02-18T01:18:31;102243.69;;;11.85;100.00
54882;BME280;40775;51.448;4.742;2023-02-18T01:20:58;102230.50;;;11.85;100.00
54882;BME280;40775;51.448;4.742;2023-02-18T01:23:26;102231.41;;;11.86;100.00
54882;BME280;40775;51.448;4.742;2023-02-18T01:25:54;102220.09;;;11.88;100.00
54882;BME280;40775;51.448;4.742;2023-02-18T01:28:23;102208.56;;;11.85;100.00
54882;BME280;40775;51.448;4.742;2023-02-18T01:30:52;102208.69;;;11.88;100.00
54882;BME280;40775;51.448;4.742;2023-02-18T01:33:20;102194.63;;;11.87;100.00
54882;BME280;40775;51.448;4.742;2023-02-18T01:35:47;102204.25;;;11.87;100.00
54882;BME280;40775;51.448;4.742;2023-02-18T01:38:15;102198.94;;;11.85;100.00
54882;BME280;40775;51.448;4.742;2023-02-18T01:40:49;102199.88;;;11.87;100.00
54882;BME280;40775;51.448;4.742;2023-02-18T01:43:18;102198.88;;;11.84;100.00
54882;BME280;40775;51.448;4.742;2023-02-18T01:48:37;102189.31;;;11.86;100.00
54882;BME280;40775;51.448;4.742;2023-02-18T01:51:23;102196.31;;;11.85;100.00
54882;BME280;40775;51.448;4.742;2023-02-18T01:54:13;102193.63;;;11.84;100.00
54882;BME280;40775;51.448;4.742;2023-02-18T01:57:14;102190.88;;;11.81;100.00
54882;BME280;40775;51.448;4.742;2023-02-18T01:59:51;102188.31;;;11.82;100.00
54882;BME280;40775;51.448;4.742;2023-02-18T02:02:23;102187.47;;;11.83;100.00
54882;BME280;40775;51.448;4.742;2023-02-18T02:04:51;102190.03;;;11.82;100.00
54882;BME280;40775;51.448;4.742;2023-02-18T02:07:22;102177.72;;;11.81;100.00
54882;BME280;40775;51.448;4.742;2023-02-18T02:09:51;102170.78;;;11.83;100.00
54882;BME280;40775;51.448;4.742;2023-02-18T02:15:57;102159.38;;;11.82;100.00
54882;BME280;40775;51.448;4.742;2023-02-18T02:18:55;102167.25;;;11.82;100.00
54882;BME280;40775;51.448;4.742;2023-02-18T02:22:34;102162.84;;;11.81;100.00
54882;BME280;40775;51.448;4.742;2023-02-18T02:26:00;102154.94;;;11.81;100.00
54882;BME280;40775;51.448;4.742;2023-02-18T02:37:15;102139.78;;;11.75;100.00
54882;BME280;40775;51.448;4.742;2023-02-18T02:46:10;102130.09;;;11.74;100.00
54882;BME280;40775;51.448;4.742;2023-02-18T02:51:57;102128.09;;;11.67;100.00
54882;BME280;40775;51.448;4.742;2023-02-18T02:54:28;102125.41;;;11.66;100.00
54882;BME280;40775;51.448;4.742;2023-02-18T02:59:52;102107.03;;;11.67;100.00
54882;BME280;40775;51.448;4.742;2023-02-18T03:11:38;102098.16;;;11.64;100.00
54882;BME280;40775;51.448;4.742;2023-02-18T03:14:22;102091.03;;;11.61;100.00
54882;BME280;40775;51.448;4.742;2023-02-18T03:17:10;102087.47;;;11.59;100.00
54882;BME280;40775;51.448;4.742;2023-02-18T03:19:44;102087.47;;;11.59;100.00
54882;BME280;40775;51.448;4.742;2023-02-18T03:22:34;102079.63;;;11.61;100.00
54882;BME280;40775;51.448;4.742;2023-02-18T03:25:04;102076.88;;;11.58;100.00
54882;BME280;40775;51.448;4.742;2023-02-18T03:27:36;102068.06;;;11.56;100.00
54882;BME280;40775;51.448;4.742;2023-02-18T03:30:14;102069.00;;;11.58;100.00
54882;BME280;40775;51.448;4.742;2023-02-18T03:32:44;102068.94;;;11.56;100.00
54882;BME280;40775;51.448;4.742;2023-02-18T03:35:15;102065.47;;;11.57;100.00
54882;BME280;40775;51.448;4.742;2023-02-18T03:37:56;102065.38;;;11.54;100.00
54882;BME280;40775;51.448;4.742;2023-02-18T03:40:30;102060.91;;;11.52;100.00
54882;BME280;40775;51.448;4.742;2023-02-18T03:42:58;102059.16;;;11.52;100.00
54882;BME280;40775;51.448;4.742;2023-02-18T03:45:26;102052.22;;;11.54;100.00
54882;BME280;40775;51.448;4.742;2023-02-18T03:47:53;102053.94;;;11.54;100.00
54882;BME280;40775;51.448;4.742;2023-02-18T03:50:20;102053.00;;;11.52;100.00
54882;BME280;40775;51.448;4.742;2023-02-18T03:52:47;102048.59;;;11.51;100.00
54882;BME280;40775;51.448;4.742;2023-02-18T03:55:14;102048.69;;;11.54;100.00
54882;BME280;40775;51.448;4.742;2023-02-18T03:57:41;102047.66;;;11.50;100.00
54882;BME280;40775;51.448;4.742;2023-02-18T04:00:09;102048.44;;;11.48;100.00
54882;BME280;40775;51.448;4.742;2023-02-18T04:02:37;102044.97;;;11.49;100.00
54882;BME280;40775;51.448;4.742;2023-02-18T04:05:04;102046.66;;;11.46;100.00
54882;BME280;40775;51.448;4.742;2023-02-18T04:07:33;102043.13;;;11.46;100.00
54882;BME280;40775;51.448;4.742;2023-02-18T04:10:00;102044.03;;;11.46;100.00
54882;BME280;40775;51.448;4.742;2023-02-18T04:12:27;102041.41;;;11.46;100.00
54882;BME280;40775;51.448;4.742;2023-02-18T04:14:54;102036.25;;;11.50;100.00
54882;BME280;40775;51.448;4.742;2023-02-18T04:17:21;102039.72;;;11.49;100.00
54882;BME280;40775;51.448;4.742;2023-02-18T04:19:48;102034.31;;;11.44;100.00
54882;BME280;40775;51.448;4.742;2023-02-18T04:22:15;102036.09;;;11.45;100.00
54882;BME280;40775;51.448;4.742;2023-02-18T04:24:42;102040.44;;;11.44;100.00
54882;BME280;40775;51.448;4.742;2023-02-18T04:27:09;102036.09;;;11.45;100.00
54882;BME280;40775;51.448;4.742;2023-02-18T04:29:37;102030.78;;;11.43;100.00
54882;BME280;40775;51.448;4.742;2023-02-18T04:32:05;102038.63;;;11.42;100.00
54882;BME280;40775;51.448;4.742;2023-02-18T04:34:32;102036.81;;;11.41;100.00
54882;BME280;40775;51.448;4.742;2023-02-18T04:36:59;102033.31;;;11.40;100.00
54882;BME280;40775;51.448;4.742;2023-02-18T04:39:26;102046.44;;;11.40;100.00
54882;BME280;40775;51.448;4.742;2023-02-18T04:41:53;102039.44;;;11.41;100.00
54882;BME280;40775;51.448;4.742;2023-02-18T04:44:20;102028.03;;;11.40;100.00
54882;BME280;40775;51.448;4.742;2023-02-18T04:46:47;102027.16;;;11.40;100.00
54882;BME280;40775;51.448;4.742;2023-02-18T04:49:14;102025.53;;;11.43;100.00
54882;BME280;40775;51.448;4.742;2023-02-18T04:51:41;102035.94;;;11.40;100.00
54882;BME280;40775;51.448;4.742;2023-02-18T04:54:08;102024.56;;;11.41;100.00
54882;BME280;40775;51.448;4.742;2023-02-18T04:56:35;102018.47;;;11.42;100.00
54882;BME280;40775;51.448;4.742;2023-02-18T04:59:02;102011.31;;;11.38;100.00
54882;BME280;40775;51.448;4.742;2023-02-18T05:01:29;102014.91;;;11.40;100.00
54882;BME280;40775;51.448;4.742;2023-02-18T05:03:56;102012.22;;;11.39;100.00
54882;BME280;40775;51.448;4.742;2023-02-18T05:06:24;102008.78;;;11.41;100.00
54882;BME280;40775;51.448;4.742;2023-02-18T05:08:51;102005.28;;;11.41;100.00
54882;BME280;40775;51.448;4.742;2023-02-18T05:11:18;101999.97;;;11.39;100.00
54882;BME280;40775;51.448;4.742;2023-02-18T05:13:45;101995.66;;;11.41;100.00
54882;BME280;40775;51.448;4.742;2023-02-18T05:16:12;101999.16;;;11.42;100.00
54882;BME280;40775;51.448;4.742;2023-02-18T05:18:40;101990.28;;;11.38;100.00
54882;BME280;40775;51.448;4.742;2023-02-18T05:21:07;101999.16;;;11.42;100.00
54882;BME280;40775;51.448;4.742;2023-02-18T05:23:34;102000.00;;;11.41;100.00
54882;BME280;40775;51.448;4.742;2023-02-18T05:26:01;101995.53;;;11.38;100.00
54882;BME280;40775;51.448;4.742;2023-02-18T05:28:28;101999.13;;;11.40;100.00
54882;BME280;40775;51.448;4.742;2023-02-18T05:30:55;101990.50;;;11.44;100.00
54882;BME280;40775;51.448;4.742;2023-02-18T05:33:22;101981.66;;;11.42;100.00
54882;BME280;40775;51.448;4.742;2023-02-18T05:35:52;101982.44;;;11.40;100.00
54882;BME280;40775;51.448;4.742;2023-02-18T05:38:20;101991.91;;;11.35;100.00
54882;BME280;40775;51.448;4.742;2023-02-18T05:40:47;101992.13;;;11.41;100.00
54882;BME280;40775;51.448;4.742;2023-02-18T05:43:14;101993.75;;;11.37;100.00
54882;BME280;40775;51.448;4.742;2023-02-18T05:45:41;102001.59;;;11.36;100.00
54882;BME280;40775;51.448;4.742;2023-02-18T05:48:08;101988.50;;;11.37;100.00
54882;BME280;40775;51.448;4.742;2023-02-18T05:50:35;101985.72;;;11.33;100.00
54882;BME280;40775;51.448;4.742;2023-02-18T05:53:02;101983.97;;;11.33;100.00
54882;BME280;40775;51.448;4.742;2023-02-18T05:55:30;101966.31;;;11.29;100.00
54882;BME280;40775;51.448;4.742;2023-02-18T05:57:57;101959.63;;;11.39;100.00
54882;BME280;40775;51.448;4.742;2023-02-18T06:00:24;101965.56;;;11.33;100.00
54882;BME280;40775;51.448;4.742;2023-02-18T06:02:51;101961.00;;;11.28;100.00
54882;BME280;40775;51.448;4.742;2023-02-18T06:05:18;101965.56;;;11.33;100.00
54882;BME280;40775;51.448;4.742;2023-02-18T06:07:45;101959.41;;;11.33;100.00
54882;BME280;40775;51.448;4.742;2023-02-18T06:10:12;101957.75;;;11.35;100.00
54882;BME280;40775;51.448;4.742;2023-02-18T06:12:39;101954.16;;;11.33;100.00
54882;BME280;40775;51.448;4.742;2023-02-18T06:15:06;101949.59;;;11.27;100.00
54882;BME280;40775;51.448;4.742;2023-02-18T06:17:33;101956.63;;;11.28;100.00
54882;BME280;40775;51.448;4.742;2023-02-18T06:20:01;101945.97;;;11.24;100.00
54882;BME280;40775;51.448;4.742;2023-02-18T06:22:28;101949.34;;;11.21;100.00
54882;BME280;40775;51.448;4.742;2023-02-18T06:24:55;101955.44;;;11.20;100.00
54882;BME280;40775;51.448;4.742;2023-02-18T06:27:22;101971.13;;;11.17;100.00
54882;BME280;40775;51.448;4.742;2023-02-18T06:29:49;101956.81;;;11.09;100.00
54882;BME280;40775;51.448;4.742;2023-02-18T06:32:16;101953.34;;;11.10;100.00
54882;BME280;40775;51.448;4.742;2023-02-18T06:34:44;101955.09;;;11.09;100.00
54882;BME280;40775;51.448;4.742;2023-02-18T06:37:10;101950.50;;;11.04;100.00
54882;BME280;40775;51.448;4.742;2023-02-18T06:39:38;101958.38;;;11.04;100.00
54882;BME280;40775;51.448;4.742;2023-02-18T06:42:05;101957.38;;;11.00;100.00
54882;BME280;40775;51.448;4.742;2023-02-18T06:44:32;101960.97;;;11.02;100.00
54882;BME280;40775;51.448;4.742;2023-02-18T06:46:59;101941.78;;;11.05;100.00
54882;BME280;40775;51.448;4.742;2023-02-18T06:49:26;101946.03;;;11.01;100.00
54882;BME280;40775;51.448;4.742;2023-02-18T06:51:53;101943.34;;;11.00;100.00
54882;BME280;40775;51.448;4.742;2023-02-18T06:54:20;101953.75;;;10.97;100.00
54882;BME280;40775;51.448;4.742;2023-02-18T06:56:47;101951.19;;;10.98;100.00
54882;BME280;40775;51.448;4.742;2023-02-18T06:59:14;101943.09;;;10.94;100.00
54882;BME280;40775;51.448;4.742;2023-02-18T07:01:41;101948.34;;;10.94;100.00
54882;BME280;40775;51.448;4.742;2023-02-18T07:04:08;101941.56;;;10.99;100.00
54882;BME280;40775;51.448;4.742;2023-02-18T07:06:35;101955.28;;;10.92;100.00
54882;BME280;40775;51.448;4.742;2023-02-18T07:09:02;101950.81;;;10.89;100.00
54882;BME280;40775;51.448;4.742;2023-02-18T07:11:29;101955.19;;;10.89;100.00
54882;BME280;40775;51.448;4.742;2023-02-18T07:13:56;101953.50;;;10.91;100.00
54882;BME280;40775;51.448;4.742;2023-02-18T07:16:23;101944.09;;;10.96;100.00
54882;BME280;40775;51.448;4.742;2023-02-18T07:18:51;101943.09;;;10.94;100.00
54882;BME280;40775;51.448;4.742;2023-02-18T07:21:18;101947.34;;;10.90;100.00
54882;BME280;40775;51.448;4.742;2023-02-18T07:23:45;101927.03;;;10.84;100.00
54882;BME280;40775;51.448;4.742;2023-02-18T07:26:13;101935.97;;;10.90;100.00
54882;BME280;40775;51.448;4.742;2023-02-18T07:28:41;101934.22;;;10.90;100.00
54882;BME280;40775;51.448;4.742;2023-02-18T07:31:08;101935.97;;;10.90;100.00
54882;BME280;40775;51.448;4.742;2023-02-18T07:33:35;101943.78;;;10.88;100.00
54882;BME280;40775;51.448;4.742;2023-02-18T07:36:03;101949.16;;;10.91;100.00
54882;BME280;40775;51.448;4.742;2023-02-18T07:38:30;101960.34;;;10.86;100.00
54882;BME280;40775;51.448;4.742;2023-02-18T07:40:58;101959.50;;;10.87;100.00
54882;BME280;40775;51.448;4.742;2023-02-18T07:43:25;101962.06;;;10.85;100.00
54882;BME280;40775;51.448;4.742;2023-02-18T07:45:52;101955.06;;;10.86;100.00
54882;BME280;40775;51.448;4.742;2023-02-18T07:48:19;101964.69;;;10.85;100.00
54882;BME280;40775;51.448;4.742;2023-02-18T07:50:46;101960.34;;;10.86;100.00
54882;BME280;40775;51.448;4.742;2023-02-18T07:53:15;101947.97;;;10.83;100.00
54882;BME280;40775;51.448;4.742;2023-02-18T07:55:42;101946.47;;;10.90;100.00
54882;BME280;40775;51.448;4.742;2023-02-18T07:58:30;101948.31;;;10.92;100.00
54882;BME280;40775;51.448;4.742;2023-02-18T08:00:58;101948.34;;;10.94;100.00
54882;BME280;40775;51.448;4.742;2023-02-18T08:03:29;101946.81;;;10.99;100.00
54882;BME280;40775;51.448;4.742;2023-02-18T08:05:57;101942.34;;;10.96;100.00
54882;BME280;40775;51.448;4.742;2023-02-18T08:08:27;101945.03;;;10.98;100.00
54882;BME280;40775;51.448;4.742;2023-02-18T08:10:58;101938.94;;;10.99;100.00
54882;BME280;40775;51.448;4.742;2023-02-18T08:13:32;101937.16;;;10.98;100.00
54882;BME280;40775;51.448;4.742;2023-02-18T08:15:59;101928.59;;;11.03;100.00
54882;BME280;40775;51.448;4.742;2023-02-18T08:18:26;101933.78;;;11.02;100.00
54882;BME280;40775;51.448;4.742;2023-02-18T08:20:53;101933.84;;;11.03;100.00
54882;BME280;40775;51.448;4.742;2023-02-18T08:23:22;101932.44;;;11.13;100.00
54882;BME280;40775;51.448;4.742;2023-02-18T08:25:50;101922.69;;;11.10;100.00
54882;BME280;40775;51.448;4.742;2023-02-18T08:28:21;101923.59;;;11.11;100.00
54882;BME280;40775;51.448;4.742;2023-02-18T08:30:51;101922.75;;;11.12;100.00
54882;BME280;40775;51.448;4.742;2023-02-18T08:33:19;101922.84;;;11.15;100.00
54882;BME280;40775;51.448;4.742;2023-02-18T08:35:47;101929.91;;;11.16;100.00
54882;BME280;40775;51.448;4.742;2023-02-18T08:38:15;101927.28;;;11.16;100.00
54882;BME280;40775;51.448;4.742;2023-02-18T08:40:42;101936.72;;;11.11;100.00
54882;BME280;40775;51.448;4.742;2023-02-18T08:43:10;101940.16;;;11.08;100.00
54882;BME280;40775;51.448;4.742;2023-02-18T08:45:38;101934.16;;;11.12;100.00
54882;BME280;40775;51.448;4.742;2023-02-18T08:48:07;101933.38;;;11.15;100.00
54882;BME280;40775;51.448;4.742;2023-02-18T08:50:46;101916.16;;;11.23;100.00
54882;BME280;40775;51.448;4.742;2023-02-18T08:53:14;101920.22;;;11.15;100.00
54882;BME280;40775;51.448;4.742;2023-02-18T08:55:41;101912.41;;;11.17;100.00
54882;BME280;40775;51.448;4.742;2023-02-18T08:58:09;101914.22;;;11.19;100.00
54882;BME280;40775;51.448;4.742;2023-02-18T09:00:37;101917.72;;;11.18;100.00
54882;BME280;40775;51.448;4.742;2023-02-18T09:03:05;101919.50;;;11.19;100.00
54882;BME280;40775;51.448;4.742;2023-02-18T09:05:32;101923.34;;;11.29;100.00
54882;BME280;40775;51.448;4.742;2023-02-18T09:07:59;101932.69;;;11.21;100.00
54882;BME280;40775;51.448;4.742;2023-02-18T09:10:26;101918.69;;;11.22;100.00
54882;BME280;40775;51.448;4.742;2023-02-18T09:12:53;101921.53;;;11.26;100.00
54882;BME280;40775;51.448;4.742;2023-02-18T09:15:20;101922.16;;;11.21;100.00
54882;BME280;40775;51.448;4.742;2023-02-18T09:17:47;101921.28;;;11.20;100.00
54882;BME280;40775;51.448;4.742;2023-02-18T09:20:14;101933.59;;;11.21;100.00
54882;BME280;40775;51.448;4.742;2023-02-18T09:22:41;101942.31;;;11.20;100.00
54882;BME280;40775;51.448;4.742;2023-02-18T09:25:08;101931.78;;;11.20;100.00
54882;BME280;40775;51.448;4.742;2023-02-18T09:27:36;101929.34;;;11.25;100.00
54882;BME280;40775;51.448;4.742;2023-02-18T09:30:05;101925.00;;;11.25;100.00
54882;BME280;40775;51.448;4.742;2023-02-18T09:32:32;101942.53;;;11.26;100.00
54882;BME280;40775;51.448;4.742;2023-02-18T09:35:03;101939.19;;;11.30;100.00
54882;BME280;40775;51.448;4.742;2023-02-18T09:37:30;101935.59;;;11.28;100.00
54882;BME280;40775;51.448;4.742;2023-02-18T09:39:57;101941.88;;;11.32;100.00
54882;BME280;40775;51.448;4.742;2023-02-18T09:42:32;101934.88;;;11.32;100.00
54882;BME280;40775;51.448;4.742;2023-02-18T09:45:05;101943.69;;;11.34;100.00
54882;BME280;40775;51.448;4.742;2023-02-18T09:47:39;101944.66;;;11.36;100.00
54882;BME280;40775;51.448;4.742;2023-02-18T09:50:20;101939.28;;;11.33;100.00
54882;BME280;40775;51.448;4.742;2023-02-18T09:52:48;101948.31;;;11.41;100.00
54882;BME280;40775;51.448;4.742;2023-02-18T09:55:34;101944.06;;;11.45;100.00
54882;BME280;40775;51.448;4.742;2023-02-18T09:58:11;101965.88;;;11.42;100.00
54882;BME280;40775;51.448;4.742;2023-02-18T10:00:43;101959.84;;;11.45;100.00
54882;BME280;40775;51.448;4.742;2023-02-18T10:03:15;101955.56;;;11.49;100.00
54882;BME280;40775;51.448;4.742;2023-02-18T10:06:00;101959.78;;;11.43;100.00
54882;BME280;40775;51.448;4.742;2023-02-18T10:08:42;101955.63;;;11.50;100.00
54882;BME280;40775;51.448;4.742;2023-02-18T10:11:39;101970.44;;;11.48;100.00
54882;BME280;40775;51.448;4.742;2023-02-18T10:14:08;101964.50;;;11.52;100.00
54882;BME280;40775;51.448;4.742;2023-02-18T10:16:36;101968.84;;;11.52;100.00
54882;BME280;40775;51.448;4.742;2023-02-18T10:21:55;101978.59;;;11.54;100.00
54882;BME280;40775;51.448;4.742;2023-02-18T10:24:41;101982.06;;;11.53;100.00
54882;BME280;40775;51.448;4.742;2023-02-18T10:27:33;101984.88;;;11.59;100.00
54882;BME280;40775;51.448;4.742;2023-02-18T10:30:42;101986.72;;;11.62;100.00
54882;BME280;40775;51.448;4.742;2023-02-18T10:33:35;101992.09;;;11.65;100.00
54882;BME280;40775;51.448;4.742;2023-02-18T10:36:26;102000.03;;;11.66;100.00
54882;BME280;40775;51.448;4.742;2023-02-18T10:45:13;101991.53;;;11.75;100.00
54882;BME280;40775;51.448;4.742;2023-02-18T10:50:40;102003.13;;;11.79;100.00
54882;BME280;40775;51.448;4.742;2023-02-18T10:53:31;102006.72;;;11.81;100.00
54882;BME280;40775;51.448;4.742;2023-02-18T10:56:00;102019.81;;;11.79;100.00
54882;BME280;40775;51.448;4.742;2023-02-18T10:58:33;102009.38;;;11.82;100.00
54882;BME280;40775;51.448;4.742;2023-02-18T11:01:06;102016.53;;;11.86;100.00
54882;BME280;40775;51.448;4.742;2023-02-18T11:03:46;102009.50;;;11.85;100.00
54882;BME280;40775;51.448;4.742;2023-02-18T11:08:59;102021.09;;;11.92;100.00
54882;BME280;40775;51.448;4.742;2023-02-18T11:11:36;102026.41;;;11.93;100.00
54882;BME280;40775;51.448;4.742;2023-02-18T11:14:06;102029.00;;;11.92;100.00
54882;BME280;40775;51.448;4.742;2023-02-18T11:16:45;102023.59;;;11.87;100.00
54882;BME280;40775;51.448;4.742;2023-02-18T11:19:34;102029.84;;;11.91;100.00
54882;BME280;40775;51.448;4.742;2023-02-18T11:22:14;102027.34;;;11.95;100.00
54882;BME280;40775;51.448;4.742;2023-02-18T11:24:42;102027.22;;;11.91;100.00
54882;BME280;40775;51.448;4.742;2023-02-18T11:27:41;102017.63;;;11.93;100.00
54882;BME280;40775;51.448;4.742;2023-02-18T11:30:38;102022.19;;;11.98;100.00
54882;BME280;40775;51.448;4.742;2023-02-18T11:33:13;102028.34;;;11.99;100.00
54882;BME280;40775;51.448;4.742;2023-02-18T11:35:50;102031.94;;;12.01;100.00
54882;BME280;40775;51.448;4.742;2023-02-18T11:38:36;102016.09;;;11.99;100.00
54882;BME280;40775;51.448;4.742;2023-02-18T11:41:10;102028.44;;;12.02;100.00
54882;BME280;40775;51.448;4.742;2023-02-18T11:43:50;102010.06;;;12.03;100.00
54882;BME280;40775;51.448;4.742;2023-02-18T11:46:24;102019.75;;;12.04;100.00
54882;BME280;40775;51.448;4.742;2023-02-18T11:48:53;102015.38;;;12.05;100.00
54882;BME280;40775;51.448;4.742;2023-02-18T11:51:27;102018.09;;;12.06;100.00
54882;BME280;40775;51.448;4.742;2023-02-18T11:54:09;102017.34;;;12.11;100.00
54882;BME280;40775;51.448;4.742;2023-02-18T11:57:05;102018.25;;;12.11;100.00
54882;BME280;40775;51.448;4.742;2023-02-18T11:59:37;102021.81;;;12.13;100.00
54882;BME280;40775;51.448;4.742;2023-02-18T12:05:22;102005.41;;;12.22;100.00
54882;BME280;40775;51.448;4.742;2023-02-18T12:07:58;102013.31;;;12.22;100.00
54882;BME280;40775;51.448;4.742;2023-02-18T12:10:56;102012.75;;;12.32;100.00
54882;BME280;40775;51.448;4.742;2023-02-18T12:13:32;102003.19;;;12.34;100.00
54882;BME280;40775;51.448;4.742;2023-02-18T12:22:40;101980.81;;;12.48;100.00
54882;BME280;40775;51.448;4.742;2023-02-18T12:28:39;101989.72;;;12.53;100.00
54882;BME280;40775;51.448;4.742;2023-02-18T12:31:31;101996.66;;;12.50;100.00
54882;BME280;40775;51.448;4.742;2023-02-18T13:04:04;101981.81;;;12.82;100.00
54882;BME280;40775;51.448;4.742;2023-02-18T13:07:24;101973.91;;;12.82;100.00
54882;BME280;40775;51.448;4.742;2023-02-18T13:13:23;101973.19;;;12.87;100.00
54882;BME280;40775;51.448;4.742;2023-02-18T13:19:41;101975.78;;;12.86;100.00
54882;BME280;40775;51.448;4.742;2023-02-18T13:21:31;101971.69;;;12.95;100.00
54882;BME280;40775;51.448;4.742;2023-02-18T13:24:13;101974.56;;;13.05;100.00
54882;BME280;40775;51.448;4.742;2023-02-18T13:26:43;101967.47;;;13.02;100.00
54882;BME280;40775;51.448;4.742;2023-02-18T13:38:56;101965.19;;;13.46;100.00
54882;BME280;40775;51.448;4.742;2023-02-18T13:41:26;101947.81;;;13.54;100.00
54882;BME280;40775;51.448;4.742;2023-02-18T13:43:53;101948.47;;;13.45;100.00
54882;BME280;40775;51.448;4.742;2023-02-18T13:46:22;101955.97;;;13.63;100.00
54882;BME280;40775;51.448;4.742;2023-02-18T13:49:06;101949.63;;;13.56;100.00
54882;BME280;40775;51.448;4.742;2023-02-18T13:51:46;101954.19;;;13.62;100.00
54882;BME280;40775;51.448;4.742;2023-02-18T13:54:22;101965.91;;;13.73;100.00
54882;BME280;40775;51.448;4.742;2023-02-18T13:57:01;101957.22;;;13.77;100.00
54882;BME280;40775;51.448;4.742;2023-02-18T13:59:56;101956.25;;;13.74;100.00
54882;BME280;40775;51.448;4.742;2023-02-18T14:02:29;101951.81;;;13.73;100.00
54882;BME280;40775;51.448;4.742;2023-02-18T14:05:20;101958.84;;;13.72;100.00
54882;BME280;40775;51.448;4.742;2023-02-18T14:08:14;101963.31;;;13.75;100.00
54882;BME280;40775;51.448;4.742;2023-02-18T14:10:42;101945.47;;;13.66;100.00
54882;BME280;40775;51.448;4.742;2023-02-18T14:13:46;101958.84;;;13.72;100.00
54882;BME280;40775;51.448;4.742;2023-02-18T14:16:14;101953.53;;;13.71;100.00
54882;BME280;40775;51.448;4.742;2023-02-18T14:23:41;101956.19;;;13.71;100.00
54882;BME280;40775;51.448;4.742;2023-02-18T14:28:52;101962.50;;;13.77;100.00
54882;BME280;40775;51.448;4.742;2023-02-18T14:31:43;101963.31;;;13.75;100.00
54882;BME280;40775;51.448;4.742;2023-02-18T14:43:01;101952.69;;;13.72;100.00
54882;BME280;40775;51.448;4.742;2023-02-18T14:51:20;101950.00;;;13.70;100.00
54882;BME280;40775;51.448;4.742;2023-02-18T14:53:48;101952.44;;;13.63;100.00
54882;BME280;40775;51.448;4.742;2023-02-18T14:56:18;101948.94;;;13.64;100.00
54882;BME280;40775;51.448;4.742;2023-02-18T14:58:55;101957.84;;;13.69;100.00
54882;BME280;40775;51.448;4.742;2023-02-18T15:01:28;101957.75;;;13.64;100.00
54882;BME280;40775;51.448;4.742;2023-02-18T15:03:56;101949.91;;;13.67;100.00
54882;BME280;40775;51.448;4.742;2023-02-18T15:06:34;101947.16;;;13.63;100.00
54882;BME280;40775;51.448;4.742;2023-02-18T15:09:20;101952.50;;;13.66;100.00
54882;BME280;40775;51.448;4.742;2023-02-18T15:12:00;101956.75;;;13.59;100.00
54882;BME280;40775;51.448;4.742;2023-02-18T15:14:37;101961.25;;;13.63;100.00
54882;BME280;40775;51.448;4.742;2023-02-18T15:17:13;101953.97;;;13.54;100.00
54882;BME280;40775;51.448;4.742;2023-02-18T15:19:55;101954.66;;;13.46;100.00